sensor_id;sensor_type;location;lat;lon;timestamp;P1;durP1;ratioP1;P2;durP2;ratioP2
70605;SDS011;58173;52.500;5.494;2023-07-13T00:00:02;10.07;;;2.53;;
70605;SDS011;58173;52.500;5.494;2023-07-13T00:02:38;10.00;;;2.00;;
70605;SDS011;58173;52.500;5.494;2023-07-13T00:05:05;6.05;;;1.90;;
70605;SDS011;58173;52.500;5.494;2023-07-13T00:07:33;8.18;;;1.88;;
70605;SDS011;58173;52.500;5.494;2023-07-13T00:10:01;10.20;;;1.95;;
70605;SDS011;58173;52.500;5.494;2023-07-13T00:12:33;11.77;;;2.35;;
70605;SDS011;58173;52.500;5.494;2023-07-13T00:15:01;11.32;;;2.10;;
70605;SDS011;58173;52.500;5.494;2023-07-13T00:17:29;11.95;;;2.60;;
70605;SDS011;58173;52.500;5.494;2023-07-13T00:20:02;9.77;;;2.10;;
70605;SDS011;58173;52.500;5.494;2023-07-13T00:22:30;14.05;;;2.10;;
70605;SDS011;58173;52.500;5.494;2023-07-13T00:24:57;14.27;;;2.55;;
70605;SDS011;58173;52.500;5.494;2023-07-13T00:27:27;11.95;;;2.40;;
70605;SDS011;58173;52.500;5.494;2023-07-13T00:29:56;11.57;;;2.20;;
70605;SDS011;58173;52.500;5.494;2023-07-13T00:32:23;13.60;;;2.70;;
70605;SDS011;58173;52.500;5.494;2023-07-13T00:37:23;10.13;;;2.60;;
70605;SDS011;58173;52.500;5.494;2023-07-13T00:39:51;11.70;;;2.40;;
70605;SDS011;58173;52.500;5.494;2023-07-13T00:42:20;10.30;;;2.53;;
70605;SDS011;58173;52.500;5.494;2023-07-13T00:45:00;14.35;;;2.88;;
70605;SDS011;58173;52.500;5.494;2023-07-13T00:47:28;15.05;;;3.00;;
70605;SDS011;58173;52.500;5.494;2023-07-13T00:49:57;12.35;;;2.92;;
70605;SDS011;58173;52.500;5.494;2023-07-13T00:52:25;7.65;;;2.65;;
70605;SDS011;58173;52.500;5.494;2023-07-13T00:54:54;14.45;;;2.70;;
70605;SDS011;58173;52.500;5.494;2023-07-13T00:57:22;12.02;;;2.30;;
70605;SDS011;58173;52.500;5.494;2023-07-13T00:59:52;15.40;;;2.83;;
70605;SDS011;58173;52.500;5.494;2023-07-13T01:02:19;19.92;;;3.38;;
70605;SDS011;58173;52.500;5.494;2023-07-13T01:04:48;13.48;;;2.65;;
70605;SDS011;58173;52.500;5.494;2023-07-13T01:07:15;15.77;;;2.60;;
70605;SDS011;58173;52.500;5.494;2023-07-13T01:09:43;15.20;;;2.85;;
70605;SDS011;58173;52.500;5.494;2023-07-13T01:12:11;15.73;;;2.72;;
70605;SDS011;58173;52.500;5.494;2023-07-13T01:14:40;12.07;;;2.47;;
70605;SDS011;58173;52.500;5.494;2023-07-13T01:17:10;13.05;;;2.70;;
70605;SDS011;58173;52.500;5.494;2023-07-13T01:19:42;12.93;;;2.60;;
70605;SDS011;58173;52.500;5.494;2023-07-13T01:22:17;19.15;;;2.95;;
70605;SDS011;58173;52.500;5.494;2023-07-13T01:24:46;13.07;;;3.15;;
70605;SDS011;58173;52.500;5.494;2023-07-13T01:27:23;12.07;;;2.35;;
70605;SDS011;58173;52.500;5.494;2023-07-13T01:29:52;10.18;;;2.40;;
70605;SDS011;58173;52.500;5.494;2023-07-13T01:32:31;14.48;;;2.75;;
70605;SDS011;58173;52.500;5.494;2023-07-13T01:35:01;12.98;;;2.30;;
70605;SDS011;58173;52.500;5.494;2023-07-13T01:37:28;12.00;;;2.70;;
70605;SDS011;58173;52.500;5.494;2023-07-13T01:39:59;13.55;;;2.88;;
70605;SDS011;58173;52.500;5.494;2023-07-13T01:42:30;12.82;;;2.78;;
70605;SDS011;58173;52.500;5.494;2023-07-13T01:45:00;15.13;;;3.00;;
70605;SDS011;58173;52.500;5.494;2023-07-13T01:47:29;15.05;;;2.83;;
70605;SDS011;58173;52.500;5.494;2023-07-13T01:49:57;17.65;;;2.65;;
70605;SDS011;58173;52.500;5.494;2023-07-13T01:52:27;12.23;;;2.72;;
70605;SDS011;58173;52.500;5.494;2023-07-13T01:54:54;15.27;;;2.58;;
70605;SDS011;58173;52.500;5.494;2023-07-13T01:57:21;13.20;;;2.63;;
70605;SDS011;58173;52.500;5.494;2023-07-13T01:59:53;20.25;;;3.42;;
70605;SDS011;58173;52.500;5.494;2023-07-13T02:02:20;14.32;;;3.05;;
70605;SDS011;58173;52.500;5.494;2023-07-13T02:04:48;12.55;;;2.58;;
70605;SDS011;58173;52.500;5.494;2023-07-13T02:07:16;14.65;;;3.00;;
70605;SDS011;58173;52.500;5.494;2023-07-13T02:09:43;12.23;;;3.00;;
70605;SDS011;58173;52.500;5.494;2023-07-13T02:12:12;13.35;;;2.63;;
70605;SDS011;58173;52.500;5.494;2023-07-13T02:14:42;16.17;;;3.53;;
70605;SDS011;58173;52.500;5.494;2023-07-13T02:17:13;13.55;;;3.45;;
70605;SDS011;58173;52.500;5.494;2023-07-13T02:19:41;10.75;;;2.92;;
70605;SDS011;58173;52.500;5.494;2023-07-13T02:22:09;13.20;;;2.95;;
70605;SDS011;58173;52.500;5.494;2023-07-13T02:24:36;13.43;;;3.20;;
70605;SDS011;58173;52.500;5.494;2023-07-13T02:27:05;13.27;;;2.90;;
70605;SDS011;58173;52.500;5.494;2023-07-13T02:29:33;12.48;;;3.10;;
70605;SDS011;58173;52.500;5.494;2023-07-13T02:32:00;14.27;;;3.20;;
70605;SDS011;58173;52.500;5.494;2023-07-13T02:34:27;12.38;;;2.78;;
70605;SDS011;58173;52.500;5.494;2023-07-13T02:36:59;19.50;;;3.28;;
70605;SDS011;58173;52.500;5.494;2023-07-13T02:39:26;14.82;;;2.90;;
70605;SDS011;58173;52.500;5.494;2023-07-13T02:41:54;12.38;;;2.80;;
70605;SDS011;58173;52.500;5.494;2023-07-13T02:44:21;13.23;;;3.00;;
70605;SDS011;58173;52.500;5.494;2023-07-13T02:46:51;11.93;;;2.65;;
70605;SDS011;58173;52.500;5.494;2023-07-13T02:49:18;10.57;;;2.38;;
70605;SDS011;58173;52.500;5.494;2023-07-13T02:51:46;13.15;;;3.28;;
70605;SDS011;58173;52.500;5.494;2023-07-13T02:54:14;13.73;;;2.80;;
70605;SDS011;58173;52.500;5.494;2023-07-13T02:56:41;14.23;;;3.10;;
70605;SDS011;58173;52.500;5.494;2023-07-13T02:59:11;10.98;;;2.53;;
70605;SDS011;58173;52.500;5.494;2023-07-13T03:01:38;13.40;;;3.13;;
70605;SDS011;58173;52.500;5.494;2023-07-13T03:04:10;11.07;;;2.67;;
70605;SDS011;58173;52.500;5.494;2023-07-13T03:06:39;17.30;;;2.95;;
70605;SDS011;58173;52.500;5.494;2023-07-13T03:09:07;15.43;;;2.83;;
70605;SDS011;58173;52.500;5.494;2023-07-13T03:11:38;10.55;;;2.60;;
70605;SDS011;58173;52.500;5.494;2023-07-13T03:14:16;14.10;;;2.72;;
70605;SDS011;58173;52.500;5.494;2023-07-13T03:16:44;15.73;;;3.17;;
70605;SDS011;58173;52.500;5.494;2023-07-13T03:19:11;14.35;;;2.53;;
70605;SDS011;58173;52.500;5.494;2023-07-13T03:21:41;13.90;;;3.10;;
70605;SDS011;58173;52.500;5.494;2023-07-13T03:24:09;12.95;;;2.70;;
70605;SDS011;58173;52.500;5.494;2023-07-13T03:26:36;14.82;;;3.00;;
70605;SDS011;58173;52.500;5.494;2023-07-13T03:29:06;15.30;;;3.42;;
70605;SDS011;58173;52.500;5.494;2023-07-13T03:31:34;14.25;;;2.92;;
70605;SDS011;58173;52.500;5.494;2023-07-13T03:34:02;11.23;;;2.90;;
70605;SDS011;58173;52.500;5.494;2023-07-13T03:36:31;15.68;;;2.95;;
70605;SDS011;58173;52.500;5.494;2023-07-13T03:39:04;13.75;;;2.88;;
70605;SDS011;58173;52.500;5.494;2023-07-13T03:41:47;11.35;;;2.40;;
70605;SDS011;58173;52.500;5.494;2023-07-13T03:44:35;10.23;;;2.70;;
70605;SDS011;58173;52.500;5.494;2023-07-13T03:47:03;10.52;;;3.15;;
70605;SDS011;58173;52.500;5.494;2023-07-13T03:49:32;15.27;;;2.90;;
70605;SDS011;58173;52.500;5.494;2023-07-13T03:52:05;12.90;;;2.72;;
70605;SDS011;58173;52.500;5.494;2023-07-13T03:54:34;13.13;;;2.83;;
70605;SDS011;58173;52.500;5.494;2023-07-13T03:57:01;10.32;;;2.17;;
70605;SDS011;58173;52.500;5.494;2023-07-13T03:59:32;9.10;;;2.33;;
70605;SDS011;58173;52.500;5.494;2023-07-13T04:02:00;10.75;;;2.33;;
70605;SDS011;58173;52.500;5.494;2023-07-13T04:04:32;8.57;;;2.10;;
70605;SDS011;58173;52.500;5.494;2023-07-13T04:07:00;10.65;;;2.15;;
70605;SDS011;58173;52.500;5.494;2023-07-13T04:09:27;8.88;;;2.08;;
70605;SDS011;58173;52.500;5.494;2023-07-13T04:11:57;9.05;;;2.33;;
70605;SDS011;58173;52.500;5.494;2023-07-13T04:14:26;5.43;;;1.60;;
70605;SDS011;58173;52.500;5.494;2023-07-13T04:17:14;7.53;;;1.63;;
70605;SDS011;58173;52.500;5.494;2023-07-13T04:19:41;8.10;;;1.67;;
70605;SDS011;58173;52.500;5.494;2023-07-13T04:22:09;9.35;;;1.77;;
70605;SDS011;58173;52.500;5.494;2023-07-13T04:24:36;7.75;;;1.80;;
70605;SDS011;58173;52.500;5.494;2023-07-13T04:27:04;8.55;;;1.65;;
70605;SDS011;58173;52.500;5.494;2023-07-13T04:29:31;8.18;;;2.20;;
70605;SDS011;58173;52.500;5.494;2023-07-13T04:34:39;7.68;;;2.20;;
70605;SDS011;58173;52.500;5.494;2023-07-13T04:37:07;9.80;;;1.77;;
70605;SDS011;58173;52.500;5.494;2023-07-13T04:39:34;7.88;;;1.83;;
70605;SDS011;58173;52.500;5.494;2023-07-13T04:42:04;9.25;;;1.70;;
70605;SDS011;58173;52.500;5.494;2023-07-13T04:44:31;6.78;;;1.83;;
70605;SDS011;58173;52.500;5.494;2023-07-13T04:46:58;9.55;;;1.90;;
70605;SDS011;58173;52.500;5.494;2023-07-13T04:49:26;10.18;;;1.90;;
70605;SDS011;58173;52.500;5.494;2023-07-13T04:51:55;11.05;;;2.38;;
70605;SDS011;58173;52.500;5.494;2023-07-13T04:54:22;8.00;;;1.90;;
70605;SDS011;58173;52.500;5.494;2023-07-13T04:56:52;7.15;;;1.90;;
70605;SDS011;58173;52.500;5.494;2023-07-13T04:59:22;10.82;;;2.10;;
70605;SDS011;58173;52.500;5.494;2023-07-13T05:01:54;10.95;;;1.90;;
70605;SDS011;58173;52.500;5.494;2023-07-13T05:04:27;9.70;;;1.88;;
70605;SDS011;58173;52.500;5.494;2023-07-13T05:07:16;9.35;;;1.95;;
70605;SDS011;58173;52.500;5.494;2023-07-13T05:09:46;13.05;;;1.90;;
70605;SDS011;58173;52.500;5.494;2023-07-13T05:12:15;8.95;;;2.22;;
70605;SDS011;58173;52.500;5.494;2023-07-13T05:14:43;7.65;;;1.65;;
70605;SDS011;58173;52.500;5.494;2023-07-13T05:17:11;8.55;;;1.60;;
70605;SDS011;58173;52.500;5.494;2023-07-13T05:19:38;7.18;;;1.55;;
70605;SDS011;58173;52.500;5.494;2023-07-13T05:22:08;6.80;;;1.55;;
70605;SDS011;58173;52.500;5.494;2023-07-13T05:24:36;7.68;;;1.60;;
70605;SDS011;58173;52.500;5.494;2023-07-13T05:27:03;10.93;;;1.60;;
70605;SDS011;58173;52.500;5.494;2023-07-13T05:29:33;10.50;;;1.92;;
70605;SDS011;58173;52.500;5.494;2023-07-13T05:34:32;9.73;;;2.30;;
70605;SDS011;58173;52.500;5.494;2023-07-13T05:36:59;14.88;;;2.38;;
70605;SDS011;58173;52.500;5.494;2023-07-13T05:39:27;9.88;;;2.72;;
70605;SDS011;58173;52.500;5.494;2023-07-13T05:41:56;11.68;;;2.42;;
70605;SDS011;58173;52.500;5.494;2023-07-13T05:44:23;13.73;;;2.83;;
70605;SDS011;58173;52.500;5.494;2023-07-13T05:46:51;11.77;;;2.40;;
70605;SDS011;58173;52.500;5.494;2023-07-13T05:49:18;12.82;;;3.05;;
70605;SDS011;58173;52.500;5.494;2023-07-13T05:51:47;8.48;;;2.45;;
70605;SDS011;58173;52.500;5.494;2023-07-13T05:54:16;10.73;;;2.63;;
70605;SDS011;58173;52.500;5.494;2023-07-13T05:56:43;11.25;;;2.55;;
70605;SDS011;58173;52.500;5.494;2023-07-13T05:59:11;9.38;;;2.50;;
70605;SDS011;58173;52.500;5.494;2023-07-13T06:01:39;11.00;;;2.40;;
70605;SDS011;58173;52.500;5.494;2023-07-13T06:04:06;10.18;;;2.83;;
70605;SDS011;58173;52.500;5.494;2023-07-13T06:06:34;11.60;;;2.88;;
70605;SDS011;58173;52.500;5.494;2023-07-13T06:09:01;12.23;;;2.83;;
70605;SDS011;58173;52.500;5.494;2023-07-13T06:11:31;10.85;;;2.22;;
70605;SDS011;58173;52.500;5.494;2023-07-13T06:13:58;10.00;;;2.45;;
70605;SDS011;58173;52.500;5.494;2023-07-13T06:16:25;12.80;;;2.55;;
70605;SDS011;58173;52.500;5.494;2023-07-13T06:18:53;8.93;;;2.50;;
70605;SDS011;58173;52.500;5.494;2023-07-13T06:21:22;14.95;;;3.22;;
70605;SDS011;58173;52.500;5.494;2023-07-13T06:23:50;10.00;;;2.50;;
70605;SDS011;58173;52.500;5.494;2023-07-13T06:26:18;14.57;;;3.00;;
70605;SDS011;58173;52.500;5.494;2023-07-13T06:28:46;11.30;;;2.90;;
70605;SDS011;58173;52.500;5.494;2023-07-13T06:31:14;14.25;;;3.03;;
70605;SDS011;58173;52.500;5.494;2023-07-13T06:33:42;12.45;;;2.70;;
70605;SDS011;58173;52.500;5.494;2023-07-13T06:36:11;14.23;;;2.95;;
70605;SDS011;58173;52.500;5.494;2023-07-13T06:38:38;13.50;;;3.00;;
70605;SDS011;58173;52.500;5.494;2023-07-13T06:41:07;11.68;;;2.67;;
70605;SDS011;58173;52.500;5.494;2023-07-13T06:43:35;14.30;;;3.33;;
70605;SDS011;58173;52.500;5.494;2023-07-13T06:46:02;13.60;;;2.88;;
70605;SDS011;58173;52.500;5.494;2023-07-13T06:48:30;12.23;;;2.80;;
70605;SDS011;58173;52.500;5.494;2023-07-13T06:50:58;13.98;;;3.08;;
70605;SDS011;58173;52.500;5.494;2023-07-13T06:53:28;12.50;;;2.70;;
70605;SDS011;58173;52.500;5.494;2023-07-13T06:55:55;14.07;;;2.78;;
70605;SDS011;58173;52.500;5.494;2023-07-13T06:58:22;9.52;;;2.70;;
70605;SDS011;58173;52.500;5.494;2023-07-13T07:00:50;8.68;;;2.25;;
70605;SDS011;58173;52.500;5.494;2023-07-13T07:03:18;11.43;;;2.55;;
70605;SDS011;58173;52.500;5.494;2023-07-13T07:05:46;12.60;;;2.65;;
70605;SDS011;58173;52.500;5.494;2023-07-13T07:08:13;14.13;;;2.75;;
70605;SDS011;58173;52.500;5.494;2023-07-13T07:10:41;11.35;;;2.88;;
70605;SDS011;58173;52.500;5.494;2023-07-13T07:13:11;10.15;;;2.55;;
70605;SDS011;58173;52.500;5.494;2023-07-13T07:15:40;10.00;;;2.33;;
70605;SDS011;58173;52.500;5.494;2023-07-13T07:18:08;11.30;;;2.67;;
70605;SDS011;58173;52.500;5.494;2023-07-13T07:20:35;10.60;;;2.30;;
70605;SDS011;58173;52.500;5.494;2023-07-13T07:23:02;11.43;;;2.50;;
70605;SDS011;58173;52.500;5.494;2023-07-13T07:25:30;10.20;;;2.65;;
70605;SDS011;58173;52.500;5.494;2023-07-13T07:27:58;10.38;;;2.60;;
70605;SDS011;58173;52.500;5.494;2023-07-13T07:30:29;14.48;;;2.90;;
70605;SDS011;58173;52.500;5.494;2023-07-13T07:32:59;11.18;;;2.33;;
70605;SDS011;58173;52.500;5.494;2023-07-13T07:35:31;10.35;;;2.40;;
70605;SDS011;58173;52.500;5.494;2023-07-13T07:38:04;8.30;;;2.50;;
70605;SDS011;58173;52.500;5.494;2023-07-13T07:40:32;12.20;;;2.90;;
70605;SDS011;58173;52.500;5.494;2023-07-13T07:43:06;9.30;;;2.60;;
70605;SDS011;58173;52.500;5.494;2023-07-13T07:45:36;7.32;;;2.35;;
70605;SDS011;58173;52.500;5.494;2023-07-13T07:48:04;10.65;;;2.45;;
70605;SDS011;58173;52.500;5.494;2023-07-13T07:50:32;6.53;;;2.45;;
70605;SDS011;58173;52.500;5.494;2023-07-13T07:53:06;10.70;;;2.35;;
70605;SDS011;58173;52.500;5.494;2023-07-13T07:55:38;7.75;;;2.20;;
70605;SDS011;58173;52.500;5.494;2023-07-13T08:01:01;7.80;;;1.88;;
70605;SDS011;58173;52.500;5.494;2023-07-13T08:03:31;5.97;;;1.58;;
70605;SDS011;58173;52.500;5.494;2023-07-13T08:08:32;6.70;;;1.88;;
70605;SDS011;58173;52.500;5.494;2023-07-13T08:11:01;5.22;;;1.67;;
70605;SDS011;58173;52.500;5.494;2023-07-13T08:13:40;6.35;;;1.90;;
70605;SDS011;58173;52.500;5.494;2023-07-13T08:16:07;6.00;;;1.88;;
70605;SDS011;58173;52.500;5.494;2023-07-13T08:18:35;8.32;;;1.90;;
70605;SDS011;58173;52.500;5.494;2023-07-13T08:21:03;8.43;;;2.10;;
70605;SDS011;58173;52.500;5.494;2023-07-13T08:23:34;7.55;;;2.25;;
70605;SDS011;58173;52.500;5.494;2023-07-13T08:26:02;5.68;;;2.00;;
70605;SDS011;58173;52.500;5.494;2023-07-13T08:28:30;6.10;;;2.20;;
70605;SDS011;58173;52.500;5.494;2023-07-13T08:31:02;7.07;;;2.00;;
70605;SDS011;58173;52.500;5.494;2023-07-13T08:33:39;5.78;;;2.40;;
70605;SDS011;58173;52.500;5.494;2023-07-13T08:36:07;5.97;;;1.85;;
70605;SDS011;58173;52.500;5.494;2023-07-13T08:38:34;5.53;;;1.98;;
70605;SDS011;58173;52.500;5.494;2023-07-13T08:41:04;6.43;;;2.25;;
70605;SDS011;58173;52.500;5.494;2023-07-13T08:43:40;8.02;;;2.28;;
70605;SDS011;58173;52.500;5.494;2023-07-13T08:46:19;6.68;;;2.05;;
70605;SDS011;58173;52.500;5.494;2023-07-13T08:48:55;8.77;;;2.35;;
70605;SDS011;58173;52.500;5.494;2023-07-13T08:54:52;9.00;;;2.55;;
70605;SDS011;58173;52.500;5.494;2023-07-13T08:57:13;7.72;;;2.08;;
70605;SDS011;58173;52.500;5.494;2023-07-13T08:59:43;7.55;;;1.92;;
70605;SDS011;58173;52.500;5.494;2023-07-13T09:04:50;6.78;;;2.25;;
70605;SDS011;58173;52.500;5.494;2023-07-13T09:10:02;5.10;;;1.90;;
70605;SDS011;58173;52.500;5.494;2023-07-13T09:15:04;7.60;;;2.08;;
70605;SDS011;58173;52.500;5.494;2023-07-13T09:17:46;7.85;;;2.03;;
70605;SDS011;58173;52.500;5.494;2023-07-13T09:20:42;7.18;;;2.25;;
70605;SDS011;58173;52.500;5.494;2023-07-13T09:23:27;6.55;;;2.08;;
70605;SDS011;58173;52.500;5.494;2023-07-13T09:26:14;5.75;;;2.00;;
70605;SDS011;58173;52.500;5.494;2023-07-13T09:28:44;7.93;;;2.10;;
70605;SDS011;58173;52.500;5.494;2023-07-13T09:31:20;9.27;;;2.22;;
70605;SDS011;58173;52.500;5.494;2023-07-13T09:33:50;5.63;;;2.08;;
70605;SDS011;58173;52.500;5.494;2023-07-13T09:38:45;7.50;;;2.00;;
70605;SDS011;58173;52.500;5.494;2023-07-13T09:46:21;5.03;;;2.10;;
70605;SDS011;58173;52.500;5.494;2023-07-13T09:48:49;7.10;;;2.13;;
70605;SDS011;58173;52.500;5.494;2023-07-13T09:51:16;7.65;;;1.83;;
70605;SDS011;58173;52.500;5.494;2023-07-13T09:53:52;6.05;;;1.90;;
70605;SDS011;58173;52.500;5.494;2023-07-13T09:58:48;8.73;;;2.13;;
70605;SDS011;58173;52.500;5.494;2023-07-13T10:01:15;6.25;;;2.20;;
70605;SDS011;58173;52.500;5.494;2023-07-13T10:03:51;7.90;;;1.98;;
70605;SDS011;58173;52.500;5.494;2023-07-13T10:06:20;5.93;;;1.80;;
70605;SDS011;58173;52.500;5.494;2023-07-13T10:08:51;6.57;;;2.00;;
70605;SDS011;58173;52.500;5.494;2023-07-13T10:11:20;7.13;;;1.90;;
70605;SDS011;58173;52.500;5.494;2023-07-13T10:16:23;6.65;;;2.00;;
70605;SDS011;58173;52.500;5.494;2023-07-13T10:18:53;6.10;;;1.85;;
70605;SDS011;58173;52.500;5.494;2023-07-13T10:21:23;5.32;;;1.73;;
70605;SDS011;58173;52.500;5.494;2023-07-13T10:24:17;5.78;;;1.70;;
70605;SDS011;58173;52.500;5.494;2023-07-13T10:29:37;4.88;;;1.73;;
70605;SDS011;58173;52.500;5.494;2023-07-13T10:32:11;6.20;;;1.88;;
70605;SDS011;58173;52.500;5.494;2023-07-13T10:34:40;3.83;;;1.77;;
70605;SDS011;58173;52.500;5.494;2023-07-13T10:37:15;5.68;;;1.80;;
70605;SDS011;58173;52.500;5.494;2023-07-13T10:39:44;7.28;;;1.80;;
70605;SDS011;58173;52.500;5.494;2023-07-13T10:42:12;6.45;;;1.92;;
70605;SDS011;58173;52.500;5.494;2023-07-13T10:44:42;6.43;;;1.90;;
70605;SDS011;58173;52.500;5.494;2023-07-13T10:47:13;6.40;;;1.80;;
70605;SDS011;58173;52.500;5.494;2023-07-13T10:49:44;6.40;;;1.92;;
70605;SDS011;58173;52.500;5.494;2023-07-13T10:54:58;6.43;;;1.98;;
70605;SDS011;58173;52.500;5.494;2023-07-13T10:57:27;6.57;;;2.17;;
70605;SDS011;58173;52.500;5.494;2023-07-13T11:02:34;3.85;;;1.58;;
70605;SDS011;58173;52.500;5.494;2023-07-13T11:05:26;6.10;;;2.05;;
70605;SDS011;58173;52.500;5.494;2023-07-13T11:08:20;6.25;;;2.05;;
70605;SDS011;58173;52.500;5.494;2023-07-13T11:10:51;7.38;;;1.80;;
70605;SDS011;58173;52.500;5.494;2023-07-13T11:21:29;6.55;;;1.90;;
70605;SDS011;58173;52.500;5.494;2023-07-13T11:26:42;7.03;;;1.90;;
70605;SDS011;58173;52.500;5.494;2023-07-13T11:29:24;7.60;;;2.20;;
70605;SDS011;58173;52.500;5.494;2023-07-13T11:31:55;6.10;;;1.73;;
70605;SDS011;58173;52.500;5.494;2023-07-13T11:34:25;5.68;;;2.20;;
70605;SDS011;58173;52.500;5.494;2023-07-13T11:36:56;6.55;;;1.80;;
70605;SDS011;58173;52.500;5.494;2023-07-13T11:39:29;6.55;;;1.95;;
70605;SDS011;58173;52.500;5.494;2023-07-13T11:42:02;6.65;;;1.88;;
70605;SDS011;58173;52.500;5.494;2023-07-13T11:44:34;6.30;;;2.00;;
70605;SDS011;58173;52.500;5.494;2023-07-13T11:47:11;5.05;;;1.70;;
70605;SDS011;58173;52.500;5.494;2023-07-13T11:49:44;6.88;;;1.70;;
70605;SDS011;58173;52.500;5.494;2023-07-13T11:52:15;6.10;;;1.90;;
70605;SDS011;58173;52.500;5.494;2023-07-13T11:54:48;7.70;;;1.80;;
70605;SDS011;58173;52.500;5.494;2023-07-13T11:59:52;8.15;;;1.80;;
70605;SDS011;58173;52.500;5.494;2023-07-13T12:04:54;5.68;;;1.70;;
70605;SDS011;58173;52.500;5.494;2023-07-13T12:07:22;5.68;;;1.52;;
70605;SDS011;58173;52.500;5.494;2023-07-13T12:09:49;6.45;;;1.65;;
70605;SDS011;58173;52.500;5.494;2023-07-13T12:12:28;6.07;;;1.92;;
70605;SDS011;58173;52.500;5.494;2023-07-13T12:14:58;5.97;;;1.55;;
70605;SDS011;58173;52.500;5.494;2023-07-13T12:17:26;5.75;;;1.92;;
70605;SDS011;58173;52.500;5.494;2023-07-13T12:19:56;4.20;;;1.52;;
70605;SDS011;58173;52.500;5.494;2023-07-13T12:22:27;6.38;;;1.70;;
70605;SDS011;58173;52.500;5.494;2023-07-13T12:24:55;5.35;;;1.40;;
70605;SDS011;58173;52.500;5.494;2023-07-13T12:27:26;6.55;;;1.65;;
70605;SDS011;58173;52.500;5.494;2023-07-13T12:29:59;6.32;;;1.70;;
70605;SDS011;58173;52.500;5.494;2023-07-13T12:32:27;4.93;;;1.38;;
70605;SDS011;58173;52.500;5.494;2023-07-13T12:35:16;4.85;;;1.70;;
70605;SDS011;58173;52.500;5.494;2023-07-13T12:37:51;5.63;;;1.48;;
70605;SDS011;58173;52.500;5.494;2023-07-13T12:40:21;5.57;;;1.70;;
70605;SDS011;58173;52.500;5.494;2023-07-13T12:43:02;6.60;;;1.70;;
70605;SDS011;58173;52.500;5.494;2023-07-13T12:45:33;5.97;;;1.60;;
70605;SDS011;58173;52.500;5.494;2023-07-13T12:48:06;4.45;;;1.73;;
70605;SDS011;58173;52.500;5.494;2023-07-13T12:50:43;5.72;;;1.55;;
70605;SDS011;58173;52.500;5.494;2023-07-13T12:53:14;3.83;;;1.30;;
70605;SDS011;58173;52.500;5.494;2023-07-13T12:55:53;5.63;;;1.50;;
70605;SDS011;58173;52.500;5.494;2023-07-13T12:58:29;4.78;;;1.80;;
70605;SDS011;58173;52.500;5.494;2023-07-13T13:00:59;5.07;;;1.63;;
70605;SDS011;58173;52.500;5.494;2023-07-13T13:03:35;5.35;;;2.03;;
70605;SDS011;58173;52.500;5.494;2023-07-13T13:06:23;5.28;;;1.70;;
70605;SDS011;58173;52.500;5.494;2023-07-13T13:08:53;5.50;;;1.60;;
70605;SDS011;58173;52.500;5.494;2023-07-13T13:11:30;6.05;;;1.80;;
70605;SDS011;58173;52.500;5.494;2023-07-13T13:14:01;6.32;;;1.75;;
70605;SDS011;58173;52.500;5.494;2023-07-13T15:22:58;8.18;;;2.50;;
70605;SDS011;58173;52.500;5.494;2023-07-13T15:25:29;7.25;;;2.60;;
70605;SDS011;58173;52.500;5.494;2023-07-13T15:27:57;6.22;;;2.08;;
70605;SDS011;58173;52.500;5.494;2023-07-13T15:30:27;7.20;;;2.08;;
70605;SDS011;58173;52.500;5.494;2023-07-13T15:32:56;5.47;;;1.95;;
70605;SDS011;58173;52.500;5.494;2023-07-13T15:35:27;5.28;;;1.88;;
70605;SDS011;58173;52.500;5.494;2023-07-13T15:37:54;7.30;;;1.95;;
70605;SDS011;58173;52.500;5.494;2023-07-13T15:40:22;6.45;;;1.98;;
70605;SDS011;58173;52.500;5.494;2023-07-13T15:42:51;6.22;;;2.13;;
70605;SDS011;58173;52.500;5.494;2023-07-13T15:45:23;6.55;;;2.10;;
70605;SDS011;58173;52.500;5.494;2023-07-13T15:47:51;6.20;;;2.03;;
70605;SDS011;58173;52.500;5.494;2023-07-13T15:50:22;10.18;;;2.15;;
70605;SDS011;58173;52.500;5.494;2023-07-13T15:52:54;5.53;;;2.28;;
70605;SDS011;58173;52.500;5.494;2023-07-13T15:55:22;4.35;;;1.70;;
70605;SDS011;58173;52.500;5.494;2023-07-13T15:57:51;6.28;;;2.03;;
70605;SDS011;58173;52.500;5.494;2023-07-13T16:00:20;5.97;;;2.03;;
70605;SDS011;58173;52.500;5.494;2023-07-13T16:02:50;6.03;;;1.90;;
70605;SDS011;58173;52.500;5.494;2023-07-13T16:05:18;5.53;;;1.70;;
70605;SDS011;58173;52.500;5.494;2023-07-13T16:07:46;6.05;;;1.98;;
70605;SDS011;58173;52.500;5.494;2023-07-13T16:10:15;5.70;;;1.70;;
70605;SDS011;58173;52.500;5.494;2023-07-13T16:12:43;5.20;;;1.85;;
70605;SDS011;58173;52.500;5.494;2023-07-13T16:15:17;6.18;;;2.10;;
70605;SDS011;58173;52.500;5.494;2023-07-13T16:17:45;6.38;;;2.15;;
70605;SDS011;58173;52.500;5.494;2023-07-13T16:20:13;6.10;;;2.13;;
70605;SDS011;58173;52.500;5.494;2023-07-13T16:22:44;5.57;;;1.90;;
70605;SDS011;58173;52.500;5.494;2023-07-13T16:25:16;5.80;;;2.13;;
70605;SDS011;58173;52.500;5.494;2023-07-13T16:27:45;4.55;;;2.00;;
70605;SDS011;58173;52.500;5.494;2023-07-13T16:30:22;5.22;;;2.00;;
70605;SDS011;58173;52.500;5.494;2023-07-13T16:32:53;6.15;;;2.33;;
70605;SDS011;58173;52.500;5.494;2023-07-13T16:35:22;6.18;;;2.05;;
70605;SDS011;58173;52.500;5.494;2023-07-13T16:37:49;7.13;;;2.53;;
70605;SDS011;58173;52.500;5.494;2023-07-13T16:40:32;7.60;;;2.33;;
70605;SDS011;58173;52.500;5.494;2023-07-13T16:43:00;5.25;;;2.17;;
70605;SDS011;58173;52.500;5.494;2023-07-13T16:45:32;6.00;;;2.35;;
70605;SDS011;58173;52.500;5.494;2023-07-13T16:48:01;6.43;;;2.17;;
70605;SDS011;58173;52.500;5.494;2023-07-13T16:50:32;6.97;;;2.20;;
70605;SDS011;58173;52.500;5.494;2023-07-13T16:53:00;6.22;;;1.90;;
70605;SDS011;58173;52.500;5.494;2023-07-13T16:55:32;5.70;;;1.92;;
70605;SDS011;58173;52.500;5.494;2023-07-13T16:57:59;4.95;;;2.08;;
70605;SDS011;58173;52.500;5.494;2023-07-13T17:00:31;5.30;;;1.77;;
70605;SDS011;58173;52.500;5.494;2023-07-13T17:03:00;5.80;;;2.15;;
70605;SDS011;58173;52.500;5.494;2023-07-13T17:05:35;8.02;;;1.92;;
70605;SDS011;58173;52.500;5.494;2023-07-13T17:08:10;7.28;;;2.00;;
70605;SDS011;58173;52.500;5.494;2023-07-13T17:10:52;6.75;;;1.92;;
70605;SDS011;58173;52.500;5.494;2023-07-13T17:13:20;6.97;;;1.80;;
70605;SDS011;58173;52.500;5.494;2023-07-13T17:15:54;6.18;;;1.92;;
70605;SDS011;58173;52.500;5.494;2023-07-13T17:18:27;5.80;;;1.70;;
70605;SDS011;58173;52.500;5.494;2023-07-13T17:21:07;7.70;;;1.83;;
70605;SDS011;58173;52.500;5.494;2023-07-13T17:23:35;6.30;;;2.15;;
70605;SDS011;58173;52.500;5.494;2023-07-13T17:26:04;5.20;;;1.80;;
70605;SDS011;58173;52.500;5.494;2023-07-13T17:28:31;5.72;;;2.15;;
70605;SDS011;58173;52.500;5.494;2023-07-13T17:30:59;8.32;;;2.00;;
70605;SDS011;58173;52.500;5.494;2023-07-13T17:33:32;8.45;;;1.83;;
70605;SDS011;58173;52.500;5.494;2023-07-13T17:36:01;5.70;;;1.85;;
70605;SDS011;58173;52.500;5.494;2023-07-13T17:38:30;6.20;;;1.80;;
70605;SDS011;58173;52.500;5.494;2023-07-13T17:40:59;6.10;;;1.80;;
70605;SDS011;58173;52.500;5.494;2023-07-13T17:43:27;7.00;;;1.92;;
70605;SDS011;58173;52.500;5.494;2023-07-13T17:45:54;5.57;;;1.73;;
70605;SDS011;58173;52.500;5.494;2023-07-13T17:48:23;4.07;;;1.85;;
70605;SDS011;58173;52.500;5.494;2023-07-13T17:50:51;7.25;;;2.10;;
70605;SDS011;58173;52.500;5.494;2023-07-13T17:53:25;5.47;;;1.70;;
70605;SDS011;58173;52.500;5.494;2023-07-13T17:55:53;4.43;;;1.77;;
70605;SDS011;58173;52.500;5.494;2023-07-13T17:58:20;7.32;;;1.98;;
70605;SDS011;58173;52.500;5.494;2023-07-13T18:00:48;4.75;;;1.80;;
70605;SDS011;58173;52.500;5.494;2023-07-13T18:03:20;4.80;;;2.00;;
70605;SDS011;58173;52.500;5.494;2023-07-13T18:05:50;5.32;;;2.00;;
70605;SDS011;58173;52.500;5.494;2023-07-13T18:08:26;5.63;;;1.90;;